Impacts TAF Board INFO
FOR SITUATIONAL AWARENESS. NOT TO BE USED FOR FLIGHT PLANNING PURPOSES.
IDs:

KCLT - Charlotte/Douglas In, NC, US

Issued at 0946 UTC 19 Jan 2018
Updated at 0947 UTC 19 Jan 2018
Potential Impact None Slight Moderate High
Time0852Z 19/10Z 19/11Z 19/12Z 19/13Z 19/14Z 19/15Z 19/16Z 19/17Z 19/18Z 19/19Z 19/20Z 19/21Z 19/22Z>>
Type OBS PRVL PRVL PRVL PRVL PRVL PRVL PRVL PRVL PRVL PRVL PRVL PRVL PRVL
VIS 10 >6 >6 >6 >6 >6 >6 >6 >6 >6 >6 >6 >6 >6
CIG -- -- -- -- -- -- -- -- -- -- -- -- -- --
Cover CLR SKC SKC SKC SKC SKC SKC SKC SKC SKC SKC SKC SKC SKC
FltCat VFR VFR VFR VFR VFR VFR VFR VFR VFR VFR VFR VFR VFR VFR
WX -- -- -- -- -- -- -- -- -- -- -- -- -- --
WDir 140 140 140 140 140 140 140 140 140 220 220 220 220 220
WSpd 3 3 3 3 3 3 3 3 3 4 4 4 4 4
WGst -- -- -- -- -- -- -- -- -- -- -- -- -- --

Raw TAF
KCLT 190946Z 1910/2012 14003KT P6SM SKC
  FM191800 22004KT P6SM SKC
  FM200100 VRB03KT P6SM SKC


Raw METAR
KCLT 190852Z 14003KT 10SM CLR M04/M06 A3021 RMK AO2 SLP235 T10441061 56009
KCLT 190752Z 15003KT 10SM CLR M03/M07 A3022 RMK AO2 SLP237 T10331067
KCLT 190652Z 23003KT 10SM CLR M03/M06 A3022 RMK AO2 SLP240 T10281061

METAR Board
Radar Display
Forecast Discussion

FOR SITUATIONAL AWARENESS. NOT TO BE USED FOR FLIGHT PLANNING PURPOSES.